• Join FlightAware (Why Join?)
  • Login
  • US Flag 
04:35AM EDT


 

Airport Tracker/Info


-or-


 

Live Flight TrackerFlight Track Log ✈ FDX1570 ✈ 10-May-2013 ✈ KMEM - KALB

Flight Track Log - Related Links

Times and Time Zones

All times are in EDT time to prevent confusion due to time zone crossing. See the FDX1570 flight status page for this flight to view local times or setup timezone preferences in your user account.

Time Position Orientation Groundspeed Altitude Reporting Facility
EDT Latitude Longitude Course Direction KTS MPH feet Rate Location/Type
04:40AM 35.0167 -89.9667 90° East 179 206 1,400  Level KMEM
04:41AM 35.0167 -89.8833 90° East 249 287 3,800 2,700 Climbing KMEM
04:43AM 35.0500 -89.7833 68° East 298 343 7,700 2,760 Climbing KMEM
04:44AM 35.0969 -89.6286 70° East 337 388 11,300 2,280 Climbing Memphis Center
04:45AM 35.1336 -89.5014 71° East 372 428 13,400 2,520 Climbing Memphis Center
04:46AM 35.1744 -89.3664 70° East 408 470 16,400 2,640 Climbing Memphis Center
04:47AM 35.2128 -89.2286 71° East 422 486 18,700 1,920 Climbing Memphis Center
04:48AM 35.2575 -89.1033 66° East 432 497 20,300 1,860 Climbing Memphis Center
04:49AM 35.3292 -88.9675 57° Northeast 456 525 22,500 2,100 Climbing Memphis Center
04:50AM 35.4025 -88.8286 57° Northeast 477 549 24,500 1,620 Climbing Memphis Center
04:55AM 35.8120 -88.1040 57° Northeast 516 594 32,500 1,560 Climbing FlightAware
04:56AM 35.8760 -88.0000 53° Northeast 515 593 33,600 1,320 Climbing FlightAware
04:56AM 35.9260 -87.9150 54° Northeast 517 595 34,300 1,260 Climbing FlightAware
04:57AM 35.9980 -87.7960 53° Northeast 519 597 35,400 1,200 Climbing FlightAware
04:58AM 36.0560 -87.6970 54° Northeast 521 600 36,100 1,020 Climbing FlightAware
04:59AM 36.1130 -87.6000 54° Northeast 528 608 36,800 600 Climbing FlightAware
04:59AM 36.1760 -87.4940 54° Northeast 539 620 37,000 120 Climbing FlightAware
05:00AM 36.2370 -87.3910 54° Northeast 547 629 37,000  Level FlightAware
05:01AM 36.2960 -87.2910 54° Northeast 538 619 37,000  Level FlightAware
05:01AM 36.3610 -87.1790 54° Northeast 532 612 37,000  Level FlightAware
05:02AM 36.4190 -87.0810 54° Northeast 525 604 37,000  Level FlightAware
05:03AM 36.4820 -86.9710 55° Northeast 523 602 37,000  Level FlightAware
05:04AM 36.5390 -86.8740 54° Northeast 520 598 37,000  Level FlightAware
05:04AM 36.5940 -86.7800 54° Northeast 518 596 37,000  Level FlightAware
05:05AM 36.6547 -86.6728 55° Northeast 518 596 37,000  Level FlightAware ADS-B
05:06AM 36.7081 -86.5809 54° Northeast 517 595 37,000  Level FlightAware ADS-B
05:06AM 36.7504 -86.5082 54° Northeast 516 594 37,000  Level FlightAware ADS-B
05:07AM 36.7920 -86.4334 55° Northeast 516 594 37,000  Level FlightAware ADS-B
05:07AM 36.8345 -86.3605 54° Northeast 516 594 37,000  Level FlightAware ADS-B
05:08AM 36.8983 -86.2490 54° Northeast 516 594 37,000  Level FlightAware ADS-B
05:09AM 36.9750 -86.1130 55° Northeast 516 594 37,000  Level FlightAware
05:10AM 37.0420 -85.9960 54° Northeast 517 595 37,000  Level FlightAware
05:10AM 37.0980 -85.8950 55° Northeast 518 596 37,000  Level FlightAware
05:11AM 37.1600 -85.7850 55° Northeast 518 596 37,000  Level FlightAware
05:12AM 37.2160 -85.6840 55° Northeast 517 595 37,000  Level FlightAware
05:12AM 37.2611 -85.6051 54° Northeast 518 596 37,000  Level FlightAware ADS-B
05:13AM 37.3055 -85.5239 55° Northeast 518 596 37,000  Level FlightAware ADS-B
05:13AM 37.3586 -85.4303 54° Northeast 518 596 37,000  Level FlightAware ADS-B
05:14AM 37.3999 -85.3540 56° Northeast 517 595 37,000  Level FlightAware ADS-B
05:14AM 37.4415 -85.2800 55° Northeast 516 594 37,000  Level FlightAware ADS-B
05:15AM 37.4829 -85.2058 55° Northeast 515 593 37,000  Level FlightAware ADS-B
05:15AM 37.5247 -85.1295 55° Northeast 515 593 37,000  Level FlightAware ADS-B
05:16AM 37.5668 -85.0532 55° Northeast 514 592 37,000  Level FlightAware ADS-B
05:16AM 37.6090 -84.9745 56° Northeast 513 590 37,000  Level FlightAware ADS-B
05:17AM 37.6495 -84.9007 55° Northeast 513 590 37,000  Level FlightAware ADS-B
05:18AM 37.7360 -84.7430 55° Northeast 530 610 37,000  Level FlightAware
05:19AM 37.7910 -84.6420 55° Northeast 537 618 37,000  Level FlightAware
05:19AM 37.8200 -84.5878 56° Northeast 538 619 37,000  Level FlightAware ADS-B
05:20AM 37.9110 -84.4210 55° Northeast 540 621 37,000  Level FlightAware
05:21AM 37.9670 -84.3160 56° Northeast 540 621 37,000  Level FlightAware
05:22AM 38.0320 -84.1930 56° Northeast 541 623 37,000  Level FlightAware
05:22AM 38.0870 -84.0900 56° Northeast 541 623 37,000  Level FlightAware
05:23AM 38.1350 -83.9990 56° Northeast 541 623 37,000  Level FlightAware
05:24AM 38.2060 -83.8660 56° Northeast 541 623 37,000  Level FlightAware
05:24AM 38.2550 -83.7730 56° Northeast 541 623 37,000  Level FlightAware
05:25AM 38.3030 -83.6830 56° Northeast 541 623 37,000  Level FlightAware
05:26AM 38.3500 -83.5930 56° Northeast 541 623 37,000  Level FlightAware
05:26AM 38.3980 -83.5030 56° Northeast 541 623 37,000  Level FlightAware
05:27AM 38.4570 -83.3900 56° Northeast 541 623 37,000  Level FlightAware
05:28AM 38.5050 -83.3000 56° Northeast 541 623 37,000  Level FlightAware
05:28AM 38.5520 -83.2100 56° Northeast 541 623 37,000  Level FlightAware
05:29AM 38.6670 -82.9810 57° Northeast 540 621 37,000  Level FlightAware
05:30AM 38.7180 -82.8820 57° Northeast 540 621 37,000  Level FlightAware
05:31AM 38.7840 -82.7530 57° Northeast 539 620 37,000  Level FlightAware
05:31AM 38.8380 -82.6460 57° Northeast 537 618 37,000  Level FlightAware
05:32AM 38.8980 -82.5290 57° Northeast 535 616 37,000  Level FlightAware
05:33AM 38.9520 -82.4200 57° Northeast 533 613 37,000  Level FlightAware
05:33AM 39.0060 -82.3140 57° Northeast 533 613 37,000  Level FlightAware
05:34AM 39.0730 -82.1790 57° Northeast 532 612 37,000  Level FlightAware
05:35AM 39.1400 -82.0480 57° Northeast 529 609 37,000  Level FlightAware
05:36AM 39.1850 -81.9560 58° Northeast 526 605 37,000  Level FlightAware
05:36AM 39.2520 -81.8210 57° Northeast 525 604 37,000  Level FlightAware
05:37AM 39.2940 -81.7340 58° Northeast 522 601 37,000  Level FlightAware
05:38AM 39.3480 -81.6270 57° Northeast 518 596 37,000  Level FlightAware
05:39AM 39.4120 -81.4970 57° Northeast 516 594 37,000  Level FlightAware
05:39AM 39.4620 -81.3930 58° Northeast 513 590 37,000  Level FlightAware
05:40AM 39.5130 -81.2900 57° Northeast 508 585 37,000  Level FlightAware
05:41AM 39.5670 -81.1790 58° Northeast 505 581 37,000  Level FlightAware
05:41AM 39.6180 -81.0750 57° Northeast 504 580 37,000  Level FlightAware
05:42AM 39.6750 -80.9570 58° Northeast 504 580 37,000  Level FlightAware
05:43AM 39.7250 -80.8520 58° Northeast 502 578 37,000  Level FlightAware
05:43AM 39.7780 -80.7420 58° Northeast 499 574 37,000  Level FlightAware
05:44AM 39.8280 -80.6350 59° Northeast 497 572 37,000  Level FlightAware
05:45AM 39.8750 -80.5390 57° Northeast 494 568 37,000  Level FlightAware
05:46AM 39.9290 -80.4250 58° Northeast 492 566 37,000  Level FlightAware
05:46AM 39.9770 -80.3240 58° Northeast 491 565 37,000  Level FlightAware
05:47AM 40.0320 -80.2060 59° Northeast 490 564 37,000  Level FlightAware
05:48AM 40.0780 -80.1070 59° Northeast 491 565 37,000  Level FlightAware
05:48AM 40.1250 -80.0090 58° Northeast 490 564 37,000  Level FlightAware
05:49AM 40.1610 -79.9300 59° Northeast 491 565 37,000  Level FlightAware
05:49AM 40.2020 -79.8440 58° Northeast 493 567 37,000  Level FlightAware
05:50AM 40.2510 -79.7390 59° Northeast 494 568 37,000  Level FlightAware
05:51AM 40.3030 -79.6290 58° Northeast 495 570 37,000  Level FlightAware
05:51AM 40.3510 -79.5210 60° Northeast 497 572 37,000  Level FlightAware
05:52AM 40.3950 -79.4260 59° Northeast 497 572 37,000  Level FlightAware
05:53AM 40.4450 -79.3170 59° Northeast 500 575 37,000  Level FlightAware
05:54AM 40.4980 -79.1990 59° Northeast 500 575 37,000  Level FlightAware
05:54AM 40.5520 -79.0820 59° Northeast 500 575 37,000  Level FlightAware
05:55AM 40.5940 -78.9900 59° Northeast 500 575 37,000  Level FlightAware
05:56AM 40.6420 -78.8820 60° Northeast 500 575 37,000  Level FlightAware
05:56AM 40.6970 -78.7620 59° Northeast 500 575 37,000  Level FlightAware
05:57AM 40.7340 -78.6790 60° Northeast 503 579 37,000  Level FlightAware
05:58AM 40.7780 -78.5790 60° Northeast 504 580 37,000  Level FlightAware
05:58AM 40.8280 -78.4690 59° Northeast 504 580 37,000  Level FlightAware
05:59AM 40.8690 -78.3790 59° Northeast 504 580 37,000  Level FlightAware
06:00AM 40.9100 -78.2890 59° Northeast 504 580 37,000  Level FlightAware
06:00AM 40.9510 -78.1990 59° Northeast 504 580 37,000  Level FlightAware
06:01AM 41.0020 -78.0860 59° Northeast 504 580 37,000  Level FlightAware
06:02AM 41.0959 -77.8599 61° Northeast 501 577 37,000 -300 Level FlightAware ADS-B
06:03AM 41.1450 -77.7460 60° Northeast 499 574 36,600 -600 Descending FlightAware
06:03AM 41.1542 -77.7247 60° Northeast 500 575 36,500 -1,080 Descending FlightAware ADS-B
06:03AM 41.1910 -77.6400 60° Northeast 503 579 35,900 -1,200 Descending FlightAware
06:04AM 41.2273 -77.5561 60° Northeast 503 579 35,300 -1,200 Descending FlightAware ADS-B
06:04AM 41.2727 -77.4503 60° Northeast 503 579 34,600 -1,080 Descending FlightAware ADS-B
06:05AM 41.3188 -77.3438 60° Northeast 503 579 33,900 -960 Descending FlightAware ADS-B
06:06AM 41.3571 -77.2535 61° Northeast 511 588 33,500 -720 Descending FlightAware ADS-B
06:06AM 41.3927 -77.1691 61° Northeast 508 585 33,200 -480 Descending FlightAware ADS-B
06:07AM 41.4313 -77.0796 60° Northeast 507 583 33,000 -240 Descending FlightAware ADS-B
06:07AM 41.4676 -76.9933 61° Northeast 504 580 33,000  Level FlightAware ADS-B
06:08AM 41.5061 -76.9014 61° Northeast 504 580 33,000  Level FlightAware ADS-B
06:08AM 41.5405 -76.8201 60° Northeast 503 579 33,000  Level FlightAware ADS-B
06:09AM 41.5828 -76.7201 60° Northeast 503 579 33,000 -300 Level FlightAware ADS-B
06:09AM 41.6178 -76.6368 61° Northeast 496 571 32,700 -780 Descending FlightAware ADS-B
06:10AM 41.6532 -76.5517 61° Northeast 494 568 32,200 -960 Descending FlightAware ADS-B
06:11AM 41.6875 -76.4689 61° Northeast 494 568 31,700 -900 Descending FlightAware ADS-B
06:11AM 41.7268 -76.3761 60° Northeast 489 563 31,200 -960 Descending FlightAware ADS-B
06:12AM 41.7603 -76.2940 61° Northeast 489 563 30,700 -1,020 Descending FlightAware ADS-B
06:12AM 41.8009 -76.1965 61° Northeast 487 560 30,100 -1,200 Descending FlightAware ADS-B
06:13AM 41.8386 -76.1040 61° Northeast 487 560 29,300 -1,320 Descending FlightAware ADS-B
06:13AM 41.8714 -76.0245 61° Northeast 489 563 28,700 -720 Descending FlightAware ADS-B
06:14AM 41.9280 -75.8870 61° Northeast 489 563 28,300 -300 Descending FlightAware
06:15AM 41.9650 -75.7970 61° Northeast 489 563 28,300 -1,860 Level FlightAware
06:16AM 42.0240 -75.6500 62° Northeast 489 563 25,700 -1,920 Descending FlightAware
06:16AM 42.0640 -75.5530 61° Northeast 489 563 25,600 -1,020 Descending FlightAware
06:17AM 42.1200 -75.4110 62° Northeast 480 552 24,200 -1,440 Descending FlightAware
06:18AM 42.1550 -75.3250 61° Northeast 474 545 23,600 -2,220 Descending FlightAware
06:19AM 42.2040 -75.2010 62° Northeast 463 533 21,300 -2,220 Descending FlightAware
06:19AM 42.2560 -75.0730 61° Northeast 457 526 19,900 -900 Descending FlightAware
06:20AM 42.2910 -74.9880 61° Northeast 457 526 19,900  Level FlightAware
06:21AM 42.3260 -74.9030 61° Northeast 457 526 19,900  Level FlightAware
06:22AM 42.3690 -74.7970 61° Northeast 457 526 19,900  Level FlightAware
06:22AM 42.3950 -74.7330 61° Northeast 457 526 19,900  Level FlightAware
06:23AM 42.4390 -74.6260 61° Northeast 457 526 19,900 -6,480 Level FlightAware
06:23AM 42.4686 -74.5314 61° Northeast 331 381 11,100 -11,040 Descending Boston Center
06:24AM 42.4711 -74.5144 79° East 348 400 11,100 -600 Level Boston Center
06:25AM 42.5019 -74.4256 65° Northeast 290 334 10,500 -1,020 Descending Boston Center
06:25AM 42.5044 -74.4003 82° East 309 356 10,100 -1,440 Descending Boston Center
06:26AM 42.5119 -74.3158 83° East 295 339 9,100 -1,140 Descending Boston Center
06:26AM 42.5122 -74.2992 89° East 293 337 9,000 -1,380 Descending Boston Center
06:27AM 42.5222 -74.2092 81° East 288 331 7,700 -1,500 Descending Boston Center
06:28AM 42.5300 -74.1025 84° East 284 327 6,400 -1,440 Descending Boston Center
06:29AM 42.5481 -74.0042 76° East 274 315 4,800 -1,440 Descending Boston Center
06:30AM 42.5661 -73.8975 77° East 269 310 3,500 -1,080 Descending Boston Center
06:31AM 42.6086 -73.8392 45° Northeast 220 253 2,700 -780 Descending Boston Center
06:32AM 42.6528 -73.8064 29° Northeast 161 185 2,000 -780 Descending Boston Center
06:33AM 42.6861 -73.8042 North 111 128 1,200 -720 Descending Boston Center
06:34AM 42.7278 -73.8081 356° North 126 145 500 -660 Descending Boston Center